sensor_id;sensor_type;location;lat;lon;timestamp;temperature;humidity
73792;DHT22;62122;41.112;16.694;2022-08-04T00:03:15;24.95;59.76
73792;DHT22;62122;41.112;16.694;2022-08-04T00:07:06;24.99;59.64
73792;DHT22;62122;41.112;16.694;2022-08-04T00:09:51;24.76;59.78
73792;DHT22;62122;41.112;16.694;2022-08-04T00:12:59;24.74;59.74
73792;DHT22;62122;41.112;16.694;2022-08-04T00:16:08;24.88;59.24
73792;DHT22;62122;41.112;16.694;2022-08-04T00:19:39;24.88;59.06
73792;DHT22;62122;41.112;16.694;2022-08-04T00:22:45;24.97;58.60
73792;DHT22;62122;41.112;16.694;2022-08-04T00:25:49;24.95;58.46
73792;DHT22;62122;41.112;16.694;2022-08-04T00:28:54;24.74;58.92
73792;DHT22;62122;41.112;16.694;2022-08-04T00:32:00;24.69;58.95
73792;DHT22;62122;41.112;16.694;2022-08-04T00:35:07;24.76;58.88
73792;DHT22;62122;41.112;16.694;2022-08-04T00:38:13;24.70;58.77
73792;DHT22;62122;41.112;16.694;2022-08-04T00:48:55;24.81;58.20
73792;DHT22;62122;41.112;16.694;2022-08-04T00:52:28;24.99;57.74
73792;DHT22;62122;41.112;16.694;2022-08-04T00:59:05;24.94;57.90
73792;DHT22;62122;41.112;16.694;2022-08-04T01:08:37;24.94;58.33
73792;DHT22;62122;41.112;16.694;2022-08-04T01:18:20;24.91;57.02
73792;DHT22;62122;41.112;16.694;2022-08-04T01:35:03;24.77;55.52
73792;DHT22;62122;41.112;16.694;2022-08-04T01:38:16;24.66;55.67
73792;DHT22;62122;41.112;16.694;2022-08-04T01:41:21;24.64;55.43
73792;DHT22;62122;41.112;16.694;2022-08-04T01:44:30;24.60;55.53
73792;DHT22;62122;41.112;16.694;2022-08-04T01:47:35;24.61;55.81
73792;DHT22;62122;41.112;16.694;2022-08-04T01:50:42;24.69;55.69
73792;DHT22;62122;41.112;16.694;2022-08-04T01:53:47;24.63;55.73
73792;DHT22;62122;41.112;16.694;2022-08-04T01:56:52;24.66;55.67
73792;DHT22;62122;41.112;16.694;2022-08-04T01:59:58;24.66;55.78
73792;DHT22;62122;41.112;16.694;2022-08-04T02:03:02;24.64;55.98
73792;DHT22;62122;41.112;16.694;2022-08-04T02:09:30;24.43;56.74
73792;DHT22;62122;41.112;16.694;2022-08-04T02:16:47;24.15;57.58
73792;DHT22;62122;41.112;16.694;2022-08-04T02:20:05;23.95;58.23
73792;DHT22;62122;41.112;16.694;2022-08-04T02:23:14;23.94;58.10
73792;DHT22;62122;41.112;16.694;2022-08-04T02:26:25;24.00;57.40
73792;DHT22;62122;41.112;16.694;2022-08-04T02:32:41;24.08;56.80
73792;DHT22;62122;41.112;16.694;2022-08-04T02:35:53;24.06;56.67
73792;DHT22;62122;41.112;16.694;2022-08-04T02:39:00;24.04;56.97
73792;DHT22;62122;41.112;16.694;2022-08-04T02:42:04;23.98;57.32
73792;DHT22;62122;41.112;16.694;2022-08-04T02:45:11;23.95;57.62
73792;DHT22;62122;41.112;16.694;2022-08-04T02:48:16;23.98;57.96
73792;DHT22;62122;41.112;16.694;2022-08-04T02:51:25;24.00;58.11
73792;DHT22;62122;41.112;16.694;2022-08-04T02:54:34;24.01;57.86
73792;DHT22;62122;41.112;16.694;2022-08-04T02:57:44;24.02;57.13
73792;DHT22;62122;41.112;16.694;2022-08-04T03:00:50;24.04;56.68
73792;DHT22;62122;41.112;16.694;2022-08-04T03:31:48;23.93;55.85
73792;DHT22;62122;41.112;16.694;2022-08-04T03:45:19;23.94;55.77
73792;DHT22;62122;41.112;16.694;2022-08-04T04:13:01;24.16;54.76
73792;DHT22;62122;41.112;16.694;2022-08-04T04:30:04;24.29;54.21
73792;DHT22;62122;41.112;16.694;2022-08-04T04:47:05;24.48;53.43
73792;DHT22;62122;41.112;16.694;2022-08-04T04:50:25;24.66;53.13
73792;DHT22;62122;41.112;16.694;2022-08-04T04:57:20;24.73;52.82
73792;DHT22;62122;41.112;16.694;2022-08-04T05:11:52;25.10;52.25
73792;DHT22;62122;41.112;16.694;2022-08-04T05:14:47;25.22;51.81
73792;DHT22;62122;41.112;16.694;2022-08-04T05:17:54;25.39;51.62
73792;DHT22;62122;41.112;16.694;2022-08-04T05:24:44;25.69;50.85
73792;DHT22;62122;41.112;16.694;2022-08-04T05:27:56;25.79;50.59
73792;DHT22;62122;41.112;16.694;2022-08-04T05:31:25;25.84;50.52
73792;DHT22;62122;41.112;16.694;2022-08-04T05:34:36;25.87;50.51
73792;DHT22;62122;41.112;16.694;2022-08-04T05:37:43;25.98;50.18
73792;DHT22;62122;41.112;16.694;2022-08-04T05:40:48;26.04;50.02
73792;DHT22;62122;41.112;16.694;2022-08-04T05:43:52;26.10;49.84
73792;DHT22;62122;41.112;16.694;2022-08-04T05:46:57;26.34;49.22
73792;DHT22;62122;41.112;16.694;2022-08-04T05:50:03;26.47;49.08
73792;DHT22;62122;41.112;16.694;2022-08-04T05:53:09;26.51;49.07
73792;DHT22;62122;41.112;16.694;2022-08-04T05:56:14;26.65;48.84
73792;DHT22;62122;41.112;16.694;2022-08-04T05:59:19;26.73;48.50
73792;DHT22;62122;41.112;16.694;2022-08-04T06:02:24;26.85;48.27
73792;DHT22;62122;41.112;16.694;2022-08-04T06:05:29;26.89;48.20
73792;DHT22;62122;41.112;16.694;2022-08-04T06:08:33;27.17;47.68
73792;DHT22;62122;41.112;16.694;2022-08-04T06:11:37;27.31;46.90
73792;DHT22;62122;41.112;16.694;2022-08-04T06:14:45;27.38;46.70
73792;DHT22;62122;41.112;16.694;2022-08-04T06:18:02;27.55;46.43
73792;DHT22;62122;41.112;16.694;2022-08-04T06:21:08;27.72;45.91
73792;DHT22;62122;41.112;16.694;2022-08-04T06:24:15;27.93;45.42
73792;DHT22;62122;41.112;16.694;2022-08-04T06:27:21;28.07;45.08
73792;DHT22;62122;41.112;16.694;2022-08-04T06:30:27;28.33;44.69
73792;DHT22;62122;41.112;16.694;2022-08-04T06:33:33;28.89;43.85
73792;DHT22;62122;41.112;16.694;2022-08-04T06:36:38;28.94;42.96
73792;DHT22;62122;41.112;16.694;2022-08-04T06:39:46;29.61;41.93
73792;DHT22;62122;41.112;16.694;2022-08-04T06:42:51;30.56;39.94
73792;DHT22;62122;41.112;16.694;2022-08-04T06:45:56;32.10;36.63
73792;DHT22;62122;41.112;16.694;2022-08-04T06:49:02;33.13;36.06
73792;DHT22;62122;41.112;16.694;2022-08-04T06:52:07;34.06;34.45
73792;DHT22;62122;41.112;16.694;2022-08-04T06:55:12;35.25;32.66
73792;DHT22;62122;41.112;16.694;2022-08-04T06:58:18;35.70;31.77
73792;DHT22;62122;41.112;16.694;2022-08-04T07:01:23;35.19;31.44
73792;DHT22;62122;41.112;16.694;2022-08-04T07:04:28;36.22;30.68
73792;DHT22;62122;41.112;16.694;2022-08-04T07:07:33;36.38;29.71
73792;DHT22;62122;41.112;16.694;2022-08-04T07:10:38;37.38;28.90
73792;DHT22;62122;41.112;16.694;2022-08-04T07:13:42;39.30;26.39
73792;DHT22;62122;41.112;16.694;2022-08-04T07:16:48;38.57;27.67
73792;DHT22;62122;41.112;16.694;2022-08-04T07:19:53;37.57;28.68
73792;DHT22;62122;41.112;16.694;2022-08-04T07:22:58;38.10;28.02
73792;DHT22;62122;41.112;16.694;2022-08-04T07:26:04;37.06;29.77
73792;DHT22;62122;41.112;16.694;2022-08-04T07:29:10;36.22;31.45
73792;DHT22;62122;41.112;16.694;2022-08-04T07:32:15;37.03;30.32
73792;DHT22;62122;41.112;16.694;2022-08-04T07:35:19;38.26;28.58
73792;DHT22;62122;41.112;16.694;2022-08-04T07:38:24;37.82;28.25
73792;DHT22;62122;41.112;16.694;2022-08-04T07:41:28;37.10;29.27
73792;DHT22;62122;41.112;16.694;2022-08-04T07:44:33;36.79;30.33
73792;DHT22;62122;41.112;16.694;2022-08-04T07:47:37;35.90;31.97
73792;DHT22;62122;41.112;16.694;2022-08-04T07:50:44;36.63;31.48
73792;DHT22;62122;41.112;16.694;2022-08-04T07:53:48;35.61;31.27
73792;DHT22;62122;41.112;16.694;2022-08-04T07:56:53;37.18;29.48
73792;DHT22;62122;41.112;16.694;2022-08-04T07:59:56;36.73;31.26
73792;DHT22;62122;41.112;16.694;2022-08-04T08:03:19;36.31;31.77
73792;DHT22;62122;41.112;16.694;2022-08-04T08:06:24;35.63;32.79
73792;DHT22;62122;41.112;16.694;2022-08-04T08:09:32;36.57;31.93
73792;DHT22;62122;41.112;16.694;2022-08-04T08:12:36;35.98;33.07
73792;DHT22;62122;41.112;16.694;2022-08-04T08:15:44;34.85;33.62
73792;DHT22;62122;41.112;16.694;2022-08-04T08:18:49;35.61;33.16
73792;DHT22;62122;41.112;16.694;2022-08-04T08:21:53;36.43;31.55
73792;DHT22;62122;41.112;16.694;2022-08-04T08:24:57;35.78;33.19
73792;DHT22;62122;41.112;16.694;2022-08-04T08:28:03;33.95;35.76
73792;DHT22;62122;41.112;16.694;2022-08-04T08:31:07;35.86;32.53
73792;DHT22;62122;41.112;16.694;2022-08-04T08:34:11;36.35;32.27
73792;DHT22;62122;41.112;16.694;2022-08-04T08:37:34;36.91;31.27
73792;DHT22;62122;41.112;16.694;2022-08-04T08:40:45;37.72;30.53
73792;DHT22;62122;41.112;16.694;2022-08-04T08:43:56;34.58;36.03
73792;DHT22;62122;41.112;16.694;2022-08-04T09:05:01;35.18;33.94
73792;DHT22;62122;41.112;16.694;2022-08-04T09:08:25;33.66;35.11
73792;DHT22;62122;41.112;16.694;2022-08-04T09:19:03;31.08;39.97
73792;DHT22;62122;41.112;16.694;2022-08-04T09:22:15;31.42;39.20
73792;DHT22;62122;41.112;16.694;2022-08-04T09:25:30;31.08;39.16
73792;DHT22;62122;41.112;16.694;2022-08-04T09:28:46;31.08;39.66
73792;DHT22;62122;41.112;16.694;2022-08-04T09:32:02;31.32;39.71
73792;DHT22;62122;41.112;16.694;2022-08-04T09:38:43;30.66;41.27
73792;DHT22;62122;41.112;16.694;2022-08-04T09:42:34;30.56;42.57
73792;DHT22;62122;41.112;16.694;2022-08-04T09:49:37;30.85;44.90
73792;DHT22;62122;41.112;16.694;2022-08-04T09:56:27;30.78;44.49
73792;DHT22;62122;41.112;16.694;2022-08-04T10:00:03;30.66;44.59
73792;DHT22;62122;41.112;16.694;2022-08-04T10:03:17;30.49;44.13
73792;DHT22;62122;41.112;16.694;2022-08-04T10:16:34;30.18;46.08
73792;DHT22;62122;41.112;16.694;2022-08-04T10:19:40;30.12;47.98
73792;DHT22;62122;41.112;16.694;2022-08-04T10:26:32;30.37;47.54
73792;DHT22;62122;41.112;16.694;2022-08-04T10:29:42;30.29;47.49
73792;DHT22;62122;41.112;16.694;2022-08-04T10:36:03;30.28;49.09
73792;DHT22;62122;41.112;16.694;2022-08-04T10:39:13;30.33;49.45
73792;DHT22;62122;41.112;16.694;2022-08-04T10:42:24;30.32;46.95
73792;DHT22;62122;41.112;16.694;2022-08-04T10:45:38;30.29;51.02
73792;DHT22;62122;41.112;16.694;2022-08-04T10:48:55;30.43;49.18
73792;DHT22;62122;41.112;16.694;2022-08-04T10:55:31;31.10;48.16
73792;DHT22;62122;41.112;16.694;2022-08-04T10:58:41;30.64;48.75
73792;DHT22;62122;41.112;16.694;2022-08-04T11:01:49;30.84;46.13
73792;DHT22;62122;41.112;16.694;2022-08-04T11:05:19;30.80;49.20
73792;DHT22;62122;41.112;16.694;2022-08-04T11:08:31;31.42;49.09
73792;DHT22;62122;41.112;16.694;2022-08-04T11:11:43;31.56;49.15
73792;DHT22;62122;41.112;16.694;2022-08-04T11:18:29;31.04;49.91
73792;DHT22;62122;41.112;16.694;2022-08-04T11:21:42;31.43;50.19
73792;DHT22;62122;41.112;16.694;2022-08-04T11:28:27;30.78;51.58
73792;DHT22;62122;41.112;16.694;2022-08-04T11:31:39;30.84;49.79
73792;DHT22;62122;41.112;16.694;2022-08-04T11:34:47;31.28;50.52
73792;DHT22;62122;41.112;16.694;2022-08-04T11:38:10;31.21;51.80
73792;DHT22;62122;41.112;16.694;2022-08-04T11:41:22;31.28;49.10
73792;DHT22;62122;41.112;16.694;2022-08-04T11:44:34;31.70;45.45
73792;DHT22;62122;41.112;16.694;2022-08-04T11:47:49;31.12;48.20
73792;DHT22;62122;41.112;16.694;2022-08-04T11:50:53;31.49;46.41
73792;DHT22;62122;41.112;16.694;2022-08-04T11:54:00;31.65;47.16
73792;DHT22;62122;41.112;16.694;2022-08-04T11:57:04;32.10;45.37
73792;DHT22;62122;41.112;16.694;2022-08-04T12:00:11;32.08;45.88
73792;DHT22;62122;41.112;16.694;2022-08-04T12:07:13;31.59;46.60
73792;DHT22;62122;41.112;16.694;2022-08-04T12:13:53;31.29;48.14
73792;DHT22;62122;41.112;16.694;2022-08-04T12:17:02;31.60;47.08
73792;DHT22;62122;41.112;16.694;2022-08-04T12:20:07;31.54;46.19
73792;DHT22;62122;41.112;16.694;2022-08-04T12:23:25;31.29;48.14
73792;DHT22;62122;41.112;16.694;2022-08-04T12:26:36;31.73;47.24
73792;DHT22;62122;41.112;16.694;2022-08-04T12:29:41;31.81;49.78
73792;DHT22;62122;41.112;16.694;2022-08-04T12:36:17;31.32;50.75
73792;DHT22;62122;41.112;16.694;2022-08-04T12:39:24;31.42;51.76
73792;DHT22;62122;41.112;16.694;2022-08-04T12:42:39;30.98;48.43
73792;DHT22;62122;41.112;16.694;2022-08-04T12:46:03;31.07;48.90
73792;DHT22;62122;41.112;16.694;2022-08-04T12:49:09;31.38;49.84
73792;DHT22;62122;41.112;16.694;2022-08-04T12:52:16;31.97;47.59
73792;DHT22;62122;41.112;16.694;2022-08-04T12:55:27;32.65;46.77
73792;DHT22;62122;41.112;16.694;2022-08-04T12:58:35;32.48;45.32
73792;DHT22;62122;41.112;16.694;2022-08-04T13:01:46;32.45;44.69
73792;DHT22;62122;41.112;16.694;2022-08-04T13:04:50;32.11;43.94
73792;DHT22;62122;41.112;16.694;2022-08-04T13:07:56;31.65;46.60
73792;DHT22;62122;41.112;16.694;2022-08-04T13:11:01;31.73;46.53
73792;DHT22;62122;41.112;16.694;2022-08-04T13:14:07;31.25;50.28
73792;DHT22;62122;41.112;16.694;2022-08-04T13:17:11;31.52;47.99
73792;DHT22;62122;41.112;16.694;2022-08-04T13:20:23;31.93;47.31
73792;DHT22;62122;41.112;16.694;2022-08-04T13:23:27;31.83;46.66
73792;DHT22;62122;41.112;16.694;2022-08-04T13:26:33;31.45;46.93
73792;DHT22;62122;41.112;16.694;2022-08-04T13:29:42;31.58;45.46
73792;DHT22;62122;41.112;16.694;2022-08-04T13:32:52;31.84;46.29
73792;DHT22;62122;41.112;16.694;2022-08-04T13:35:58;31.87;45.53
73792;DHT22;62122;41.112;16.694;2022-08-04T13:39:08;32.42;42.61
73792;DHT22;62122;41.112;16.694;2022-08-04T13:42:16;31.46;47.90
73792;DHT22;62122;41.112;16.694;2022-08-04T13:45:22;31.74;46.36
73792;DHT22;62122;41.112;16.694;2022-08-04T13:48:35;31.70;46.49
73792;DHT22;62122;41.112;16.694;2022-08-04T13:51:40;31.02;47.85
73792;DHT22;62122;41.112;16.694;2022-08-04T13:54:46;31.72;46.31
73792;DHT22;62122;41.112;16.694;2022-08-04T13:58:29;31.21;44.25
73792;DHT22;62122;41.112;16.694;2022-08-04T14:01:34;31.83;45.37
73792;DHT22;62122;41.112;16.694;2022-08-04T14:04:40;32.32;44.30
73792;DHT22;62122;41.112;16.694;2022-08-04T14:08:16;31.73;44.46
73792;DHT22;62122;41.112;16.694;2022-08-04T14:11:35;31.97;45.62
73792;DHT22;62122;41.112;16.694;2022-08-04T14:14:51;31.33;46.09
73792;DHT22;62122;41.112;16.694;2022-08-04T14:18:16;31.90;45.51
73792;DHT22;62122;41.112;16.694;2022-08-04T14:21:21;31.10;48.45
73792;DHT22;62122;41.112;16.694;2022-08-04T14:24:27;31.31;46.69
73792;DHT22;62122;41.112;16.694;2022-08-04T14:27:42;31.41;47.55
73792;DHT22;62122;41.112;16.694;2022-08-04T14:30:45;31.62;47.60
73792;DHT22;62122;41.112;16.694;2022-08-04T14:33:50;32.24;45.21
73792;DHT22;62122;41.112;16.694;2022-08-04T14:36:55;32.45;45.12
73792;DHT22;62122;41.112;16.694;2022-08-04T14:39:59;32.44;45.29
73792;DHT22;62122;41.112;16.694;2022-08-04T14:43:04;31.88;44.77
73792;DHT22;62122;41.112;16.694;2022-08-04T14:46:09;31.74;47.76
73792;DHT22;62122;41.112;16.694;2022-08-04T14:49:14;32.18;46.17
73792;DHT22;62122;41.112;16.694;2022-08-04T14:52:24;32.35;44.88
73792;DHT22;62122;41.112;16.694;2022-08-04T14:55:29;31.74;45.80
73792;DHT22;62122;41.112;16.694;2022-08-04T14:58:33;31.79;44.43
73792;DHT22;62122;41.112;16.694;2022-08-04T15:01:38;31.67;48.35
73792;DHT22;62122;41.112;16.694;2022-08-04T15:04:44;31.56;47.88
73792;DHT22;62122;41.112;16.694;2022-08-04T15:07:49;32.48;47.02
73792;DHT22;62122;41.112;16.694;2022-08-04T15:10:53;32.25;44.93
73792;DHT22;62122;41.112;16.694;2022-08-04T15:14:01;31.29;51.37
73792;DHT22;62122;41.112;16.694;2022-08-04T15:17:05;31.16;50.51
73792;DHT22;62122;41.112;16.694;2022-08-04T15:20:11;31.62;49.03
73792;DHT22;62122;41.112;16.694;2022-08-04T15:23:16;31.97;46.97
73792;DHT22;62122;41.112;16.694;2022-08-04T15:29:39;31.32;48.69
73792;DHT22;62122;41.112;16.694;2022-08-04T15:32:52;30.87;49.32
73792;DHT22;62122;41.112;16.694;2022-08-04T15:36:30;31.01;46.70
73792;DHT22;62122;41.112;16.694;2022-08-04T15:39:57;31.32;49.08
73792;DHT22;62122;41.112;16.694;2022-08-04T15:50:05;31.74;48.07
73792;DHT22;62122;41.112;16.694;2022-08-04T15:53:10;31.77;47.13
73792;DHT22;62122;41.112;16.694;2022-08-04T16:00:05;31.93;44.35
73792;DHT22;62122;41.112;16.694;2022-08-04T16:03:46;31.87;45.27
73792;DHT22;62122;41.112;16.694;2022-08-04T16:06:50;31.67;48.23
73792;DHT22;62122;41.112;16.694;2022-08-04T16:13:33;31.84;44.35
73792;DHT22;62122;41.112;16.694;2022-08-04T16:19:53;31.32;46.81
73792;DHT22;62122;41.112;16.694;2022-08-04T16:29:44;30.70;46.42
73792;DHT22;62122;41.112;16.694;2022-08-04T16:32:51;30.67;46.28
73792;DHT22;62122;41.112;16.694;2022-08-04T16:35:56;31.04;46.65
73792;DHT22;62122;41.112;16.694;2022-08-04T16:39:01;30.91;44.57
73792;DHT22;62122;41.112;16.694;2022-08-04T16:49:05;30.67;46.74
73792;DHT22;62122;41.112;16.694;2022-08-04T16:52:09;30.50;49.02
73792;DHT22;62122;41.112;16.694;2022-08-04T16:55:17;30.13;50.46
73792;DHT22;62122;41.112;16.694;2022-08-04T16:58:30;30.25;49.31
73792;DHT22;62122;41.112;16.694;2022-08-04T17:01:35;30.04;52.50
73792;DHT22;62122;41.112;16.694;2022-08-04T17:04:39;30.11;52.39
73792;DHT22;62122;41.112;16.694;2022-08-04T17:07:54;30.23;50.87
73792;DHT22;62122;41.112;16.694;2022-08-04T17:10:58;30.15;51.28
73792;DHT22;62122;41.112;16.694;2022-08-04T17:14:02;29.95;51.08
73792;DHT22;62122;41.112;16.694;2022-08-04T17:17:06;29.95;50.34
73792;DHT22;62122;41.112;16.694;2022-08-04T17:20:10;29.86;51.71
73792;DHT22;62122;41.112;16.694;2022-08-04T17:23:22;29.70;52.59
73792;DHT22;62122;41.112;16.694;2022-08-04T17:26:28;29.71;51.90
73792;DHT22;62122;41.112;16.694;2022-08-04T17:29:34;29.74;51.47
73792;DHT22;62122;41.112;16.694;2022-08-04T17:32:38;29.91;50.87
73792;DHT22;62122;41.112;16.694;2022-08-04T17:35:44;29.82;48.85
73792;DHT22;62122;41.112;16.694;2022-08-04T17:38:54;29.94;47.67
73792;DHT22;62122;41.112;16.694;2022-08-04T17:41:59;30.00;48.14
73792;DHT22;62122;41.112;16.694;2022-08-04T17:45:15;30.08;48.59
73792;DHT22;62122;41.112;16.694;2022-08-04T17:48:20;30.00;48.28
73792;DHT22;62122;41.112;16.694;2022-08-04T17:51:45;29.95;48.96
73792;DHT22;62122;41.112;16.694;2022-08-04T17:54:58;29.89;48.85
73792;DHT22;62122;41.112;16.694;2022-08-04T17:58:30;29.95;47.68
73792;DHT22;62122;41.112;16.694;2022-08-04T18:04:54;29.85;46.32
73792;DHT22;62122;41.112;16.694;2022-08-04T18:08:05;29.85;46.62
73792;DHT22;62122;41.112;16.694;2022-08-04T18:11:17;29.84;46.64
73792;DHT22;62122;41.112;16.694;2022-08-04T18:14:22;29.82;46.80
73792;DHT22;62122;41.112;16.694;2022-08-04T18:20:48;29.81;46.90
73792;DHT22;62122;41.112;16.694;2022-08-04T18:23:57;29.70;46.89
73792;DHT22;62122;41.112;16.694;2022-08-04T18:27:03;29.67;47.00
73792;DHT22;62122;41.112;16.694;2022-08-04T18:30:08;29.61;46.68
73792;DHT22;62122;41.112;16.694;2022-08-04T18:33:12;29.78;46.41
73792;DHT22;62122;41.112;16.694;2022-08-04T18:36:16;29.68;46.28
73792;DHT22;62122;41.112;16.694;2022-08-04T18:39:20;29.64;46.34
73792;DHT22;62122;41.112;16.694;2022-08-04T18:42:28;29.60;46.71
73792;DHT22;62122;41.112;16.694;2022-08-04T18:45:31;29.68;45.86
73792;DHT22;62122;41.112;16.694;2022-08-04T18:48:36;29.74;45.65
73792;DHT22;62122;41.112;16.694;2022-08-04T18:51:39;29.68;45.82
73792;DHT22;62122;41.112;16.694;2022-08-04T18:54:44;29.64;46.19
73792;DHT22;62122;41.112;16.694;2022-08-04T18:57:47;29.51;48.44
73792;DHT22;62122;41.112;16.694;2022-08-04T19:00:51;29.40;49.84
73792;DHT22;62122;41.112;16.694;2022-08-04T19:03:55;29.12;49.94
73792;DHT22;62122;41.112;16.694;2022-08-04T19:06:59;29.06;50.51
73792;DHT22;62122;41.112;16.694;2022-08-04T19:10:03;29.06;50.79
73792;DHT22;62122;41.112;16.694;2022-08-04T19:13:07;29.02;51.00
73792;DHT22;62122;41.112;16.694;2022-08-04T19:16:12;29.02;50.88
73792;DHT22;62122;41.112;16.694;2022-08-04T19:19:16;28.95;50.87
73792;DHT22;62122;41.112;16.694;2022-08-04T19:22:20;28.89;50.87
73792;DHT22;62122;41.112;16.694;2022-08-04T19:25:24;28.87;51.00
73792;DHT22;62122;41.112;16.694;2022-08-04T19:28:29;28.81;51.48
73792;DHT22;62122;41.112;16.694;2022-08-04T19:31:33;28.61;52.91
73792;DHT22;62122;41.112;16.694;2022-08-04T19:34:37;28.54;56.26
73792;DHT22;62122;41.112;16.694;2022-08-04T19:37:41;28.54;57.40
73792;DHT22;62122;41.112;16.694;2022-08-04T19:40:45;28.57;60.93
73792;DHT22;62122;41.112;16.694;2022-08-04T19:43:49;28.23;65.17
73792;DHT22;62122;41.112;16.694;2022-08-04T19:46:53;28.16;64.86
73792;DHT22;62122;41.112;16.694;2022-08-04T19:49:56;28.20;67.14
73792;DHT22;62122;41.112;16.694;2022-08-04T19:53:00;28.06;68.31
73792;DHT22;62122;41.112;16.694;2022-08-04T19:56:05;27.95;68.23
73792;DHT22;62122;41.112;16.694;2022-08-04T19:59:08;27.88;68.01
73792;DHT22;62122;41.112;16.694;2022-08-04T20:02:13;27.82;68.56
73792;DHT22;62122;41.112;16.694;2022-08-04T20:05:18;27.84;70.01
73792;DHT22;62122;41.112;16.694;2022-08-04T20:08:25;27.70;73.15
73792;DHT22;62122;41.112;16.694;2022-08-04T20:11:28;27.66;73.19
73792;DHT22;62122;41.112;16.694;2022-08-04T20:14:32;27.57;73.39
73792;DHT22;62122;41.112;16.694;2022-08-04T20:17:36;27.48;73.68
73792;DHT22;62122;41.112;16.694;2022-08-04T20:20:40;27.44;73.41
73792;DHT22;62122;41.112;16.694;2022-08-04T20:23:44;27.42;73.24
73792;DHT22;62122;41.112;16.694;2022-08-04T20:26:48;27.51;67.01
73792;DHT22;62122;41.112;16.694;2022-08-04T20:29:52;27.54;59.95
73792;DHT22;62122;41.112;16.694;2022-08-04T20:32:56;27.57;57.94
73792;DHT22;62122;41.112;16.694;2022-08-04T20:36:02;27.58;55.98
73792;DHT22;62122;41.112;16.694;2022-08-04T20:39:07;27.55;55.22
73792;DHT22;62122;41.112;16.694;2022-08-04T20:42:11;27.55;55.08
73792;DHT22;62122;41.112;16.694;2022-08-04T20:45:15;27.52;54.86
73792;DHT22;62122;41.112;16.694;2022-08-04T20:48:19;27.48;54.96
73792;DHT22;62122;41.112;16.694;2022-08-04T20:51:23;27.37;54.44
73792;DHT22;62122;41.112;16.694;2022-08-04T20:54:29;27.35;54.35
73792;DHT22;62122;41.112;16.694;2022-08-04T20:57:32;27.41;54.37
73792;DHT22;62122;41.112;16.694;2022-08-04T21:00:36;27.34;55.01
73792;DHT22;62122;41.112;16.694;2022-08-04T21:03:40;27.42;54.44
73792;DHT22;62122;41.112;16.694;2022-08-04T21:07:05;27.34;54.80
73792;DHT22;62122;41.112;16.694;2022-08-04T21:10:09;27.30;55.27
73792;DHT22;62122;41.112;16.694;2022-08-04T21:13:13;27.33;54.70
73792;DHT22;62122;41.112;16.694;2022-08-04T21:16:17;27.29;53.37
73792;DHT22;62122;41.112;16.694;2022-08-04T21:19:21;27.18;52.19
73792;DHT22;62122;41.112;16.694;2022-08-04T21:22:25;27.21;51.69
73792;DHT22;62122;41.112;16.694;2022-08-04T21:25:29;27.17;51.84
73792;DHT22;62122;41.112;16.694;2022-08-04T21:28:33;27.13;52.47
73792;DHT22;62122;41.112;16.694;2022-08-04T21:31:37;27.08;54.54
73792;DHT22;62122;41.112;16.694;2022-08-04T21:34:41;26.93;55.08
73792;DHT22;62122;41.112;16.694;2022-08-04T21:37:45;26.79;55.27
73792;DHT22;62122;41.112;16.694;2022-08-04T21:40:56;26.65;55.60
73792;DHT22;62122;41.112;16.694;2022-08-04T21:44:02;26.42;56.06
73792;DHT22;62122;41.112;16.694;2022-08-04T21:47:06;26.42;57.09
73792;DHT22;62122;41.112;16.694;2022-08-04T21:50:10;26.42;57.16
73792;DHT22;62122;41.112;16.694;2022-08-04T21:53:13;26.44;56.26
73792;DHT22;62122;41.112;16.694;2022-08-04T21:56:18;26.45;54.91
73792;DHT22;62122;41.112;16.694;2022-08-04T21:59:22;26.41;54.39
73792;DHT22;62122;41.112;16.694;2022-08-04T22:02:25;26.35;54.36
73792;DHT22;62122;41.112;16.694;2022-08-04T22:05:30;26.32;54.66
73792;DHT22;62122;41.112;16.694;2022-08-04T22:08:35;26.31;55.56
73792;DHT22;62122;41.112;16.694;2022-08-04T22:11:38;26.22;56.36
73792;DHT22;62122;41.112;16.694;2022-08-04T22:14:42;26.05;57.30
73792;DHT22;62122;41.112;16.694;2022-08-04T22:17:46;26.13;57.57
73792;DHT22;62122;41.112;16.694;2022-08-04T22:20:51;26.13;58.44
73792;DHT22;62122;41.112;16.694;2022-08-04T22:23:55;26.21;58.86
73792;DHT22;62122;41.112;16.694;2022-08-04T22:27:02;26.20;60.64
73792;DHT22;62122;41.112;16.694;2022-08-04T22:30:06;26.13;61.65
73792;DHT22;62122;41.112;16.694;2022-08-04T22:33:11;26.10;62.71
73792;DHT22;62122;41.112;16.694;2022-08-04T22:36:15;26.17;64.14
73792;DHT22;62122;41.112;16.694;2022-08-04T22:39:20;26.14;67.40
73792;DHT22;62122;41.112;16.694;2022-08-04T22:42:24;26.11;68.43
73792;DHT22;62122;41.112;16.694;2022-08-04T22:45:28;26.10;70.81
73792;DHT22;62122;41.112;16.694;2022-08-04T22:48:35;26.14;72.56
73792;DHT22;62122;41.112;16.694;2022-08-04T22:51:39;26.04;67.73
73792;DHT22;62122;41.112;16.694;2022-08-04T22:54:43;25.98;66.04
73792;DHT22;62122;41.112;16.694;2022-08-04T22:57:47;25.80;65.05
73792;DHT22;62122;41.112;16.694;2022-08-04T23:00:50;25.62;64.51
73792;DHT22;62122;41.112;16.694;2022-08-04T23:03:54;25.50;65.65
73792;DHT22;62122;41.112;16.694;2022-08-04T23:07:00;25.50;65.90
73792;DHT22;62122;41.112;16.694;2022-08-04T23:10:04;25.50;66.31
73792;DHT22;62122;41.112;16.694;2022-08-04T23:13:09;25.55;67.14
73792;DHT22;62122;41.112;16.694;2022-08-04T23:16:13;25.35;69.33
73792;DHT22;62122;41.112;16.694;2022-08-04T23:19:17;25.25;70.23
73792;DHT22;62122;41.112;16.694;2022-08-04T23:22:21;25.39;70.33
73792;DHT22;62122;41.112;16.694;2022-08-04T23:25:25;25.39;71.33
73792;DHT22;62122;41.112;16.694;2022-08-04T23:28:29;25.39;73.05
73792;DHT22;62122;41.112;16.694;2022-08-04T23:31:33;25.49;73.49
73792;DHT22;62122;41.112;16.694;2022-08-04T23:34:37;25.50;74.66
73792;DHT22;62122;41.112;16.694;2022-08-04T23:37:41;25.45;75.89
73792;DHT22;62122;41.112;16.694;2022-08-04T23:40:44;25.43;76.84
73792;DHT22;62122;41.112;16.694;2022-08-04T23:43:48;25.46;77.13
73792;DHT22;62122;41.112;16.694;2022-08-04T23:46:59;25.52;76.63
73792;DHT22;62122;41.112;16.694;2022-08-04T23:50:03;25.55;76.79
73792;DHT22;62122;41.112;16.694;2022-08-04T23:53:07;25.55;76.84
73792;DHT22;62122;41.112;16.694;2022-08-04T23:56:15;25.55;75.88
73792;DHT22;62122;41.112;16.694;2022-08-04T23:59:19;25.43;74.86
